sensor_id;sensor_type;location;lat;lon;timestamp;pressure;altitude;pressure_sealevel;temperature;humidity
72896;BME280;61036;53.224;6.554;2023-12-20T00:01:27;98787.00;;;5.39;100.00
72896;BME280;61036;53.224;6.554;2023-12-20T00:03:52;98779.25;;;5.36;100.00
72896;BME280;61036;53.224;6.554;2023-12-20T00:06:18;98768.41;;;5.38;100.00
72896;BME280;61036;53.224;6.554;2023-12-20T00:08:44;98767.88;;;5.44;100.00
72896;BME280;61036;53.224;6.554;2023-12-20T00:11:09;98774.00;;;5.35;100.00
72896;BME280;61036;53.224;6.554;2023-12-20T00:13:35;98776.00;;;5.33;100.00
72896;BME280;61036;53.224;6.554;2023-12-20T00:16:00;98779.78;;;5.30;100.00
72896;BME280;61036;53.224;6.554;2023-12-20T00:18:26;98768.25;;;5.30;100.00
72896;BME280;61036;53.224;6.554;2023-12-20T00:20:51;98765.09;;;5.24;100.00
72896;BME280;61036;53.224;6.554;2023-12-20T00:23:17;98769.00;;;5.20;100.00
72896;BME280;61036;53.224;6.554;2023-12-20T00:25:42;98761.97;;;5.19;100.00
72896;BME280;61036;53.224;6.554;2023-12-20T00:28:08;98770.97;;;5.18;100.00
72896;BME280;61036;53.224;6.554;2023-12-20T00:30:33;98750.75;;;5.25;100.00
72896;BME280;61036;53.224;6.554;2023-12-20T00:32:59;98746.53;;;5.23;100.00
72896;BME280;61036;53.224;6.554;2023-12-20T00:35:25;98737.94;;;5.19;100.00
72896;BME280;61036;53.224;6.554;2023-12-20T00:37:51;98749.28;;;5.12;100.00
72896;BME280;61036;53.224;6.554;2023-12-20T00:40:16;98739.44;;;5.12;100.00
72896;BME280;61036;53.224;6.554;2023-12-20T00:42:42;98735.25;;;5.19;100.00
72896;BME280;61036;53.224;6.554;2023-12-20T00:45:08;98732.78;;;5.27;100.00
72896;BME280;61036;53.224;6.554;2023-12-20T00:47:33;98729.69;;;5.32;100.00
72896;BME280;61036;53.224;6.554;2023-12-20T00:49:59;98733.94;;;5.35;100.00
72896;BME280;61036;53.224;6.554;2023-12-20T00:52:24;98712.47;;;5.46;100.00
72896;BME280;61036;53.224;6.554;2023-12-20T00:54:50;98720.59;;;5.44;100.00
72896;BME280;61036;53.224;6.554;2023-12-20T00:57:16;98722.69;;;5.41;100.00
72896;BME280;61036;53.224;6.554;2023-12-20T00:59:41;98722.94;;;5.28;100.00
72896;BME280;61036;53.224;6.554;2023-12-20T01:02:07;98728.84;;;5.32;100.00
72896;BME280;61036;53.224;6.554;2023-12-20T01:04:34;98729.84;;;5.31;100.00
72896;BME280;61036;53.224;6.554;2023-12-20T01:07:00;98722.41;;;5.34;100.00
72896;BME280;61036;53.224;6.554;2023-12-20T01:09:25;98724.53;;;5.40;100.00
72896;BME280;61036;53.224;6.554;2023-12-20T01:11:54;98740.25;;;5.34;100.00
72896;BME280;61036;53.224;6.554;2023-12-20T01:14:20;98754.72;;;5.31;100.00
72896;BME280;61036;53.224;6.554;2023-12-20T01:16:45;98751.06;;;5.32;100.00
72896;BME280;61036;53.224;6.554;2023-12-20T01:19:11;98752.78;;;5.33;100.00
72896;BME280;61036;53.224;6.554;2023-12-20T01:21:36;98756.56;;;5.31;100.00
72896;BME280;61036;53.224;6.554;2023-12-20T01:24:02;98756.81;;;5.27;100.00
72896;BME280;61036;53.224;6.554;2023-12-20T01:26:28;98754.88;;;5.30;100.00
72896;BME280;61036;53.224;6.554;2023-12-20T01:28:53;98748.13;;;5.35;100.00
72896;BME280;61036;53.224;6.554;2023-12-20T01:31:19;98743.25;;;5.40;100.00
72896;BME280;61036;53.224;6.554;2023-12-20T01:33:48;98738.66;;;5.52;100.00
72896;BME280;61036;53.224;6.554;2023-12-20T01:36:14;98733.91;;;5.65;100.00
72896;BME280;61036;53.224;6.554;2023-12-20T01:38:39;98729.84;;;5.71;100.00
72896;BME280;61036;53.224;6.554;2023-12-20T01:41:05;98724.09;;;5.76;100.00
72896;BME280;61036;53.224;6.554;2023-12-20T01:43:31;98729.72;;;5.72;100.00
72896;BME280;61036;53.224;6.554;2023-12-20T01:45:57;98729.19;;;5.79;100.00
72896;BME280;61036;53.224;6.554;2023-12-20T01:48:24;98732.97;;;5.76;100.00
72896;BME280;61036;53.224;6.554;2023-12-20T01:50:51;98742.06;;;5.64;100.00
72896;BME280;61036;53.224;6.554;2023-12-20T01:53:17;98750.06;;;5.54;100.00
72896;BME280;61036;53.224;6.554;2023-12-20T01:55:44;98753.28;;;5.48;100.00
72896;BME280;61036;53.224;6.554;2023-12-20T01:58:11;98757.63;;;5.49;100.00
72896;BME280;61036;53.224;6.554;2023-12-20T02:00:37;98758.94;;;5.55;100.00
72896;BME280;61036;53.224;6.554;2023-12-20T02:03:04;98764.38;;;5.53;100.00
72896;BME280;61036;53.224;6.554;2023-12-20T02:05:30;98761.03;;;5.51;100.00
72896;BME280;61036;53.224;6.554;2023-12-20T02:07:56;98764.00;;;5.58;100.00
72896;BME280;61036;53.224;6.554;2023-12-20T02:10:22;98760.88;;;5.53;100.00
72896;BME280;61036;53.224;6.554;2023-12-20T02:12:48;98772.81;;;5.48;100.00
72896;BME280;61036;53.224;6.554;2023-12-20T02:15:14;98762.09;;;5.39;100.00
72896;BME280;61036;53.224;6.554;2023-12-20T02:17:39;98756.34;;;5.43;100.00
72896;BME280;61036;53.224;6.554;2023-12-20T02:20:06;98753.66;;;5.43;100.00
72896;BME280;61036;53.224;6.554;2023-12-20T02:22:32;98759.00;;;5.43;100.00
72896;BME280;61036;53.224;6.554;2023-12-20T02:24:57;98753.28;;;5.48;100.00
72896;BME280;61036;53.224;6.554;2023-12-20T02:27:23;98746.94;;;5.49;100.00
72896;BME280;61036;53.224;6.554;2023-12-20T02:29:49;98749.31;;;5.42;100.00
72896;BME280;61036;53.224;6.554;2023-12-20T02:32:16;98735.41;;;5.48;100.00
72896;BME280;61036;53.224;6.554;2023-12-20T02:34:42;98719.34;;;5.39;100.00
72896;BME280;61036;53.224;6.554;2023-12-20T02:37:08;98716.81;;;5.47;100.00
72896;BME280;61036;53.224;6.554;2023-12-20T02:39:33;98705.56;;;5.53;100.00
72896;BME280;61036;53.224;6.554;2023-12-20T02:42:01;98712.94;;;5.61;100.00
72896;BME280;61036;53.224;6.554;2023-12-20T02:44:27;98694.59;;;5.56;100.00
72896;BME280;61036;53.224;6.554;2023-12-20T02:46:53;98687.22;;;5.69;100.00
72896;BME280;61036;53.224;6.554;2023-12-20T02:49:18;98699.69;;;5.59;100.00
72896;BME280;61036;53.224;6.554;2023-12-20T02:51:44;98712.09;;;5.60;100.00
72896;BME280;61036;53.224;6.554;2023-12-20T02:54:10;98728.25;;;5.59;100.00
72896;BME280;61036;53.224;6.554;2023-12-20T02:56:35;98728.25;;;5.59;100.00
72896;BME280;61036;53.224;6.554;2023-12-20T02:59:01;98729.53;;;5.55;100.00
72896;BME280;61036;53.224;6.554;2023-12-20T03:01:28;98718.28;;;5.61;100.00
72896;BME280;61036;53.224;6.554;2023-12-20T03:03:54;98703.06;;;5.61;100.00
72896;BME280;61036;53.224;6.554;2023-12-20T03:06:20;98689.88;;;5.60;100.00
72896;BME280;61036;53.224;6.554;2023-12-20T03:08:46;98679.16;;;5.60;100.00
72896;BME280;61036;53.224;6.554;2023-12-20T03:11:11;98667.03;;;5.56;100.00
72896;BME280;61036;53.224;6.554;2023-12-20T03:13:36;98661.66;;;5.46;100.00
72896;BME280;61036;53.224;6.554;2023-12-20T03:16:11;98636.94;;;5.63;100.00
72896;BME280;61036;53.224;6.554;2023-12-20T03:18:37;98636.81;;;5.65;100.00
72896;BME280;61036;53.224;6.554;2023-12-20T03:21:03;98617.13;;;5.76;100.00
72896;BME280;61036;53.224;6.554;2023-12-20T03:23:29;98614.72;;;5.92;100.00
72896;BME280;61036;53.224;6.554;2023-12-20T03:25:56;98597.31;;;6.07;100.00
72896;BME280;61036;53.224;6.554;2023-12-20T03:28:22;98597.59;;;6.04;100.00
72896;BME280;61036;53.224;6.554;2023-12-20T03:30:48;98599.56;;;6.02;100.00
72896;BME280;61036;53.224;6.554;2023-12-20T03:33:14;98592.38;;;6.03;100.00
72896;BME280;61036;53.224;6.554;2023-12-20T03:35:39;98608.00;;;6.07;100.00
72896;BME280;61036;53.224;6.554;2023-12-20T03:38:05;98624.06;;;6.07;100.00
72896;BME280;61036;53.224;6.554;2023-12-20T03:40:30;98630.97;;;6.00;100.00
72896;BME280;61036;53.224;6.554;2023-12-20T03:42:56;98627.03;;;5.94;100.00
72896;BME280;61036;53.224;6.554;2023-12-20T03:45:21;98632.78;;;5.90;100.00
72896;BME280;61036;53.224;6.554;2023-12-20T03:47:46;98643.31;;;5.82;100.00
72896;BME280;61036;53.224;6.554;2023-12-20T03:50:13;98644.59;;;5.78;100.00
72896;BME280;61036;53.224;6.554;2023-12-20T03:52:38;98646.38;;;5.77;100.00
72896;BME280;61036;53.224;6.554;2023-12-20T03:55:04;98641.19;;;5.85;100.00
72896;BME280;61036;53.224;6.554;2023-12-20T03:57:30;98630.09;;;5.90;100.00
72896;BME280;61036;53.224;6.554;2023-12-20T03:59:55;98627.19;;;5.93;100.00
72896;BME280;61036;53.224;6.554;2023-12-20T04:02:20;98635.84;;;5.85;100.00
72896;BME280;61036;53.224;6.554;2023-12-20T04:04:46;98635.84;;;5.76;100.00
72896;BME280;61036;53.224;6.554;2023-12-20T04:07:11;98643.59;;;5.79;100.00
72896;BME280;61036;53.224;6.554;2023-12-20T04:09:37;98637.97;;;5.82;100.00
72896;BME280;61036;53.224;6.554;2023-12-20T04:12:03;98625.03;;;5.87;100.00
72896;BME280;61036;53.224;6.554;2023-12-20T04:14:28;98626.56;;;5.89;100.00
72896;BME280;61036;53.224;6.554;2023-12-20T04:16:54;98625.72;;;5.89;100.00
72896;BME280;61036;53.224;6.554;2023-12-20T04:19:19;98625.06;;;5.97;100.00
72896;BME280;61036;53.224;6.554;2023-12-20T04:21:45;98614.63;;;6.03;100.00
72896;BME280;61036;53.224;6.554;2023-12-20T04:24:10;98610.56;;;6.09;100.00
72896;BME280;61036;53.224;6.554;2023-12-20T04:26:36;98611.41;;;6.00;100.00
72896;BME280;61036;53.224;6.554;2023-12-20T04:29:02;98630.69;;;6.03;100.00
72896;BME280;61036;53.224;6.554;2023-12-20T04:31:27;98632.53;;;6.03;100.00
72896;BME280;61036;53.224;6.554;2023-12-20T04:33:53;98630.00;;;6.11;100.00
72896;BME280;61036;53.224;6.554;2023-12-20T04:36:18;98621.81;;;6.22;100.00
72896;BME280;61036;53.224;6.554;2023-12-20T04:38:44;98634.06;;;6.25;100.00
72896;BME280;61036;53.224;6.554;2023-12-20T04:41:09;98634.50;;;6.30;100.00
72896;BME280;61036;53.224;6.554;2023-12-20T04:43:35;98645.91;;;6.32;100.00
72896;BME280;61036;53.224;6.554;2023-12-20T04:46:00;98651.38;;;6.30;100.00
72896;BME280;61036;53.224;6.554;2023-12-20T04:48:26;98661.66;;;6.25;100.00
72896;BME280;61036;53.224;6.554;2023-12-20T04:50:51;98666.59;;;6.30;100.00
72896;BME280;61036;53.224;6.554;2023-12-20T04:53:17;98668.00;;;6.34;100.00
72896;BME280;61036;53.224;6.554;2023-12-20T04:55:42;98676.31;;;6.40;100.00
72896;BME280;61036;53.224;6.554;2023-12-20T04:58:08;98682.09;;;6.36;100.00
72896;BME280;61036;53.224;6.554;2023-12-20T05:00:33;98676.03;;;6.44;100.00
72896;BME280;61036;53.224;6.554;2023-12-20T05:02:59;98678.69;;;6.44;100.00
72896;BME280;61036;53.224;6.554;2023-12-20T05:05:25;98686.88;;;6.52;100.00
72896;BME280;61036;53.224;6.554;2023-12-20T05:07:50;98691.09;;;6.54;100.00
72896;BME280;61036;53.224;6.554;2023-12-20T05:10:16;98694.91;;;6.61;100.00
72896;BME280;61036;53.224;6.554;2023-12-20T05:12:42;98701.81;;;6.64;100.00
72896;BME280;61036;53.224;6.554;2023-12-20T05:15:08;98709.00;;;6.63;100.00
72896;BME280;61036;53.224;6.554;2023-12-20T05:17:34;98702.09;;;6.61;100.00
72896;BME280;61036;53.224;6.554;2023-12-20T05:20:00;98694.06;;;6.61;100.00
72896;BME280;61036;53.224;6.554;2023-12-20T05:22:26;98700.25;;;6.61;100.00
72896;BME280;61036;53.224;6.554;2023-12-20T05:24:53;98683.63;;;6.58;100.00
72896;BME280;61036;53.224;6.554;2023-12-20T05:27:19;98680.94;;;6.58;100.00
72896;BME280;61036;53.224;6.554;2023-12-20T05:29:45;98680.94;;;6.58;100.00
72896;BME280;61036;53.224;6.554;2023-12-20T05:32:10;98673.34;;;6.63;100.00
72896;BME280;61036;53.224;6.554;2023-12-20T05:34:36;98677.84;;;6.62;100.00
72896;BME280;61036;53.224;6.554;2023-12-20T05:37:03;98670.94;;;6.70;100.00
72896;BME280;61036;53.224;6.554;2023-12-20T05:39:28;98672.78;;;6.69;100.00
72896;BME280;61036;53.224;6.554;2023-12-20T05:41:54;98673.47;;;6.71;100.00
72896;BME280;61036;53.224;6.554;2023-12-20T05:44:19;98664.28;;;6.74;100.00
72896;BME280;61036;53.224;6.554;2023-12-20T05:46:45;98661.59;;;6.74;100.00
72896;BME280;61036;53.224;6.554;2023-12-20T05:49:11;98653.28;;;6.77;100.00
72896;BME280;61036;53.224;6.554;2023-12-20T05:51:36;98666.38;;;6.80;100.00
72896;BME280;61036;53.224;6.554;2023-12-20T05:54:02;98679.94;;;6.78;100.00
72896;BME280;61036;53.224;6.554;2023-12-20T05:56:27;98673.44;;;6.81;100.00
72896;BME280;61036;53.224;6.554;2023-12-20T05:58:53;98684.59;;;6.76;100.00
72896;BME280;61036;53.224;6.554;2023-12-20T06:01:18;98700.09;;;6.73;100.00
72896;BME280;61036;53.224;6.554;2023-12-20T06:03:44;98687.44;;;6.75;100.00
72896;BME280;61036;53.224;6.554;2023-12-20T06:06:11;98677.84;;;6.72;100.00
72896;BME280;61036;53.224;6.554;2023-12-20T06:08:38;98677.00;;;6.72;100.00
72896;BME280;61036;53.224;6.554;2023-12-20T06:11:04;98668.22;;;6.79;100.00
72896;BME280;61036;53.224;6.554;2023-12-20T06:13:31;98658.94;;;6.83;100.00
72896;BME280;61036;53.224;6.554;2023-12-20T06:15:56;98657.22;;;6.82;100.00
72896;BME280;61036;53.224;6.554;2023-12-20T06:18:22;98660.47;;;6.86;100.00
72896;BME280;61036;53.224;6.554;2023-12-20T06:20:48;98664.25;;;6.93;100.00
72896;BME280;61036;53.224;6.554;2023-12-20T06:23:14;98670.50;;;6.84;100.00
72896;BME280;61036;53.224;6.554;2023-12-20T06:25:39;98671.50;;;6.83;100.00
72896;BME280;61036;53.224;6.554;2023-12-20T06:28:05;98661.56;;;6.93;100.00
72896;BME280;61036;53.224;6.554;2023-12-20T06:30:31;98661.72;;;6.92;100.00
72896;BME280;61036;53.224;6.554;2023-12-20T06:32:58;98658.19;;;6.91;100.00
72896;BME280;61036;53.224;6.554;2023-12-20T06:35:24;98659.91;;;6.92;100.00
72896;BME280;61036;53.224;6.554;2023-12-20T06:37:50;98649.84;;;6.94;100.00
72896;BME280;61036;53.224;6.554;2023-12-20T06:40:15;98651.00;;;6.92;100.00
72896;BME280;61036;53.224;6.554;2023-12-20T06:42:41;98644.06;;;6.99;100.00
72896;BME280;61036;53.224;6.554;2023-12-20T06:45:07;98647.19;;;6.94;100.00
72896;BME280;61036;53.224;6.554;2023-12-20T06:47:33;98648.13;;;7.03;100.00
72896;BME280;61036;53.224;6.554;2023-12-20T06:49:59;98644.50;;;6.94;100.00
72896;BME280;61036;53.224;6.554;2023-12-20T06:52:25;98640.25;;;7.01;100.00
72896;BME280;61036;53.224;6.554;2023-12-20T06:54:50;98633.19;;;7.10;100.00
72896;BME280;61036;53.224;6.554;2023-12-20T06:57:16;98644.34;;;7.05;100.00
72896;BME280;61036;53.224;6.554;2023-12-20T06:59:41;98630.03;;;7.15;100.00
72896;BME280;61036;53.224;6.554;2023-12-20T07:02:08;98634.16;;;7.09;100.00
72896;BME280;61036;53.224;6.554;2023-12-20T07:04:34;98627.66;;;7.12;100.00
72896;BME280;61036;53.224;6.554;2023-12-20T07:06:59;98645.00;;;7.17;100.00
72896;BME280;61036;53.224;6.554;2023-12-20T07:09:26;98641.19;;;7.20;100.00
72896;BME280;61036;53.224;6.554;2023-12-20T07:11:52;98648.69;;;7.16;100.00
72896;BME280;61036;53.224;6.554;2023-12-20T07:14:18;98651.19;;;7.18;100.00
72896;BME280;61036;53.224;6.554;2023-12-20T07:16:43;98655.41;;;7.20;100.00
72896;BME280;61036;53.224;6.554;2023-12-20T07:19:09;98652.69;;;7.30;100.00
72896;BME280;61036;53.224;6.554;2023-12-20T07:21:35;98653.16;;;7.25;100.00
72896;BME280;61036;53.224;6.554;2023-12-20T07:24:00;98665.38;;;7.28;100.00
72896;BME280;61036;53.224;6.554;2023-12-20T07:26:26;98663.56;;;7.28;100.00
72896;BME280;61036;53.224;6.554;2023-12-20T07:28:51;98680.63;;;7.27;100.00
72896;BME280;61036;53.224;6.554;2023-12-20T07:31:17;98677.28;;;7.25;100.00
72896;BME280;61036;53.224;6.554;2023-12-20T07:33:43;98675.84;;;7.21;100.00
72896;BME280;61036;53.224;6.554;2023-12-20T07:36:08;98668.53;;;7.23;100.00
72896;BME280;61036;53.224;6.554;2023-12-20T07:38:34;98676.97;;;7.28;100.00
72896;BME280;61036;53.224;6.554;2023-12-20T07:41:00;98676.09;;;7.28;100.00
72896;BME280;61036;53.224;6.554;2023-12-20T07:43:25;98681.19;;;7.31;100.00
72896;BME280;61036;53.224;6.554;2023-12-20T07:45:51;98688.09;;;7.33;100.00
72896;BME280;61036;53.224;6.554;2023-12-20T07:48:16;98679.50;;;7.30;100.00
72896;BME280;61036;53.224;6.554;2023-12-20T07:50:42;98687.00;;;7.26;100.00
72896;BME280;61036;53.224;6.554;2023-12-20T07:53:08;98690.38;;;7.28;100.00
72896;BME280;61036;53.224;6.554;2023-12-20T07:55:33;98686.28;;;7.34;100.00
72896;BME280;61036;53.224;6.554;2023-12-20T07:58:00;98687.13;;;7.35;100.00
72896;BME280;61036;53.224;6.554;2023-12-20T08:00:26;98697.00;;;7.34;100.00
72896;BME280;61036;53.224;6.554;2023-12-20T08:02:51;98705.47;;;7.29;100.00
72896;BME280;61036;53.224;6.554;2023-12-20T08:05:17;98708.00;;;7.31;100.00
72896;BME280;61036;53.224;6.554;2023-12-20T08:07:43;98714.91;;;7.33;100.00
72896;BME280;61036;53.224;6.554;2023-12-20T08:10:08;98710.41;;;7.34;100.00
72896;BME280;61036;53.224;6.554;2023-12-20T08:12:34;98695.69;;;7.38;100.00
72896;BME280;61036;53.224;6.554;2023-12-20T08:15:00;98716.44;;;7.36;100.00
72896;BME280;61036;53.224;6.554;2023-12-20T08:17:27;98724.91;;;7.41;100.00
72896;BME280;61036;53.224;6.554;2023-12-20T08:19:53;98718.00;;;7.39;100.00
72896;BME280;61036;53.224;6.554;2023-12-20T08:22:18;98723.47;;;7.47;100.00
72896;BME280;61036;53.224;6.554;2023-12-20T08:24:44;98710.50;;;7.42;100.00
72896;BME280;61036;53.224;6.554;2023-12-20T08:27:10;98707.09;;;7.50;100.00
72896;BME280;61036;53.224;6.554;2023-12-20T08:29:35;98716.41;;;7.46;100.00
72896;BME280;61036;53.224;6.554;2023-12-20T08:32:01;98711.19;;;7.44;100.00
72896;BME280;61036;53.224;6.554;2023-12-20T08:34:27;98731.69;;;7.36;100.00
72896;BME280;61036;53.224;6.554;2023-12-20T08:36:53;98781.94;;;7.43;100.00
72896;BME280;61036;53.224;6.554;2023-12-20T08:39:19;98827.72;;;6.83;100.00
72896;BME280;61036;53.224;6.554;2023-12-20T08:41:45;98882.88;;;6.36;100.00
72896;BME280;61036;53.224;6.554;2023-12-20T08:44:10;98917.09;;;6.02;100.00
72896;BME280;61036;53.224;6.554;2023-12-20T08:46:36;98912.34;;;5.84;100.00
72896;BME280;61036;53.224;6.554;2023-12-20T08:49:02;98926.06;;;5.70;100.00
72896;BME280;61036;53.224;6.554;2023-12-20T08:51:28;98908.19;;;5.49;100.00
72896;BME280;61036;53.224;6.554;2023-12-20T08:53:54;98888.50;;;5.30;100.00
72896;BME280;61036;53.224;6.554;2023-12-20T08:56:20;98878.19;;;5.25;100.00
72896;BME280;61036;53.224;6.554;2023-12-20T08:58:46;98863.41;;;5.21;100.00
72896;BME280;61036;53.224;6.554;2023-12-20T09:01:12;98841.81;;;5.13;100.00
72896;BME280;61036;53.224;6.554;2023-12-20T09:03:39;98834.63;;;5.13;100.00
72896;BME280;61036;53.224;6.554;2023-12-20T09:06:05;98801.06;;;5.20;100.00
72896;BME280;61036;53.224;6.554;2023-12-20T09:08:31;98776.06;;;5.21;100.00
72896;BME280;61036;53.224;6.554;2023-12-20T09:10:57;98755.84;;;5.28;100.00
72896;BME280;61036;53.224;6.554;2023-12-20T09:13:23;98721.28;;;5.37;100.00
72896;BME280;61036;53.224;6.554;2023-12-20T09:15:56;98695.97;;;5.41;100.00
72896;BME280;61036;53.224;6.554;2023-12-20T09:18:22;98703.69;;;5.34;100.00
72896;BME280;61036;53.224;6.554;2023-12-20T09:20:48;98675.56;;;5.40;100.00
72896;BME280;61036;53.224;6.554;2023-12-20T09:23:14;98660.81;;;5.45;100.00
72896;BME280;61036;53.224;6.554;2023-12-20T09:25:40;98654.91;;;5.42;100.00
72896;BME280;61036;53.224;6.554;2023-12-20T09:28:05;98671.78;;;5.42;100.00
72896;BME280;61036;53.224;6.554;2023-12-20T09:30:31;98668.03;;;5.55;100.00
72896;BME280;61036;53.224;6.554;2023-12-20T09:32:57;98679.13;;;5.50;100.00
72896;BME280;61036;53.224;6.554;2023-12-20T09:35:23;98684.94;;;5.65;100.00
72896;BME280;61036;53.224;6.554;2023-12-20T09:37:49;98709.69;;;5.57;100.00
72896;BME280;61036;53.224;6.554;2023-12-20T09:40:18;98735.88;;;5.63;100.00
72896;BME280;61036;53.224;6.554;2023-12-20T09:45:20;98781.81;;;5.78;100.00
72896;BME280;61036;53.224;6.554;2023-12-20T09:47:47;98798.56;;;5.80;100.00
72896;BME280;61036;53.224;6.554;2023-12-20T09:50:13;98823.31;;;5.72;100.00
72896;BME280;61036;53.224;6.554;2023-12-20T09:52:39;98815.41;;;5.71;100.00
72896;BME280;61036;53.224;6.554;2023-12-20T09:55:06;98827.72;;;5.83;100.00
72896;BME280;61036;53.224;6.554;2023-12-20T09:57:33;98829.06;;;5.99;100.00
72896;BME280;61036;53.224;6.554;2023-12-20T09:59:59;98859.78;;;6.04;100.00
72896;BME280;61036;53.224;6.554;2023-12-20T10:02:25;98867.44;;;6.09;100.00
72896;BME280;61036;53.224;6.554;2023-12-20T10:04:55;98766.22;;;8.13;100.00
72896;BME280;61036;53.224;6.554;2023-12-20T10:07:21;98766.66;;;9.60;100.00
72896;BME280;61036;53.224;6.554;2023-12-20T10:09:48;98965.25;;;7.52;100.00
72896;BME280;61036;53.224;6.554;2023-12-20T10:12:14;98920.16;;;8.32;100.00
72896;BME280;61036;53.224;6.554;2023-12-20T10:14:39;98815.75;;;11.63;100.00
72896;BME280;61036;53.224;6.554;2023-12-20T10:17:05;98893.06;;;11.31;100.00
72896;BME280;61036;53.224;6.554;2023-12-20T10:19:32;99001.88;;;8.76;100.00
72896;BME280;61036;53.224;6.554;2023-12-20T10:22:01;99042.91;;;7.53;100.00
72896;BME280;61036;53.224;6.554;2023-12-20T10:24:29;99019.47;;;7.55;100.00
72896;BME280;61036;53.224;6.554;2023-12-20T10:27:06;99004.50;;;7.53;100.00
72896;BME280;61036;53.224;6.554;2023-12-20T10:29:35;98983.72;;;7.55;100.00
72896;BME280;61036;53.224;6.554;2023-12-20T10:32:24;98967.53;;;7.47;100.00
72896;BME280;61036;53.224;6.554;2023-12-20T10:34:50;98981.44;;;6.92;100.00
72896;BME280;61036;53.224;6.554;2023-12-20T10:37:16;98964.09;;;7.06;100.00
72896;BME280;61036;53.224;6.554;2023-12-20T10:39:42;98953.38;;;7.06;100.00
72896;BME280;61036;53.224;6.554;2023-12-20T10:42:12;98944.38;;;7.17;100.00
72896;BME280;61036;53.224;6.554;2023-12-20T10:44:38;98940.25;;;7.13;100.00
72896;BME280;61036;53.224;6.554;2023-12-20T10:47:05;98954.66;;;7.02;100.00
72896;BME280;61036;53.224;6.554;2023-12-20T10:49:34;98951.50;;;6.77;100.00
72896;BME280;61036;53.224;6.554;2023-12-20T10:52:02;98939.13;;;6.86;100.00
72896;BME280;61036;53.224;6.554;2023-12-20T10:54:29;98951.06;;;6.82;100.00
72896;BME280;61036;53.224;6.554;2023-12-20T10:56:57;98934.16;;;6.91;100.00
72896;BME280;61036;53.224;6.554;2023-12-20T10:59:24;98947.09;;;6.67;100.00
72896;BME280;61036;53.224;6.554;2023-12-20T11:01:50;98946.97;;;6.68;100.00
72896;BME280;61036;53.224;6.554;2023-12-20T11:04:23;98931.84;;;6.67;100.00
72896;BME280;61036;53.224;6.554;2023-12-20T11:06:54;98922.16;;;6.85;100.00
72896;BME280;61036;53.224;6.554;2023-12-20T11:09:28;98932.50;;;7.00;100.00
72896;BME280;61036;53.224;6.554;2023-12-20T11:12:09;98935.72;;;7.03;100.00
72896;BME280;61036;53.224;6.554;2023-12-20T11:14:48;98945.88;;;7.09;100.00
72896;BME280;61036;53.224;6.554;2023-12-20T11:17:14;98953.81;;;7.11;100.00
72896;BME280;61036;53.224;6.554;2023-12-20T11:22:26;98955.09;;;7.17;100.00
72896;BME280;61036;53.224;6.554;2023-12-20T11:25:04;98960.13;;;7.00;100.00
72896;BME280;61036;53.224;6.554;2023-12-20T11:27:31;98962.81;;;7.00;100.00
72896;BME280;61036;53.224;6.554;2023-12-20T11:29:58;98955.22;;;7.15;100.00
72896;BME280;61036;53.224;6.554;2023-12-20T11:34:51;98946.34;;;7.34;100.00
72896;BME280;61036;53.224;6.554;2023-12-20T11:37:19;98958.88;;;7.33;100.00
72896;BME280;61036;53.224;6.554;2023-12-20T11:39:45;98963.00;;;7.47;100.00
72896;BME280;61036;53.224;6.554;2023-12-20T11:42:10;98959.06;;;7.61;100.00
72896;BME280;61036;53.224;6.554;2023-12-20T11:44:37;98955.78;;;7.57;100.00
72896;BME280;61036;53.224;6.554;2023-12-20T11:47:03;98962.00;;;7.58;100.00
72896;BME280;61036;53.224;6.554;2023-12-20T11:49:29;98965.25;;;7.23;100.00
72896;BME280;61036;53.224;6.554;2023-12-20T11:51:56;98951.56;;;7.45;100.00
72896;BME280;61036;53.224;6.554;2023-12-20T11:54:22;98948.75;;;7.37;100.00
72896;BME280;61036;53.224;6.554;2023-12-20T11:56:48;98941.84;;;7.35;100.00
72896;BME280;61036;53.224;6.554;2023-12-20T11:59:14;98932.38;;;7.40;100.00
72896;BME280;61036;53.224;6.554;2023-12-20T12:01:48;98935.19;;;7.19;100.00
72896;BME280;61036;53.224;6.554;2023-12-20T12:04:14;98939.41;;;7.22;100.00
72896;BME280;61036;53.224;6.554;2023-12-20T12:06:41;98918.00;;;7.31;100.00
72896;BME280;61036;53.224;6.554;2023-12-20T12:09:06;98927.13;;;7.09;100.00
72896;BME280;61036;53.224;6.554;2023-12-20T12:11:32;98921.94;;;7.18;100.00
72896;BME280;61036;53.224;6.554;2023-12-20T12:13:58;98909.91;;;7.22;100.00
72896;BME280;61036;53.224;6.554;2023-12-20T12:16:25;98913.31;;;7.24;100.00
72896;BME280;61036;53.224;6.554;2023-12-20T12:18:59;98913.31;;;7.24;100.00
72896;BME280;61036;53.224;6.554;2023-12-20T12:21:26;98921.22;;;7.16;100.00
72896;BME280;61036;53.224;6.554;2023-12-20T12:23:51;98921.81;;;7.19;100.00
72896;BME280;61036;53.224;6.554;2023-12-20T12:26:18;98916.00;;;7.14;100.00
72896;BME280;61036;53.224;6.554;2023-12-20T12:28:44;98913.75;;;7.19;100.00
72896;BME280;61036;53.224;6.554;2023-12-20T12:31:14;98909.63;;;7.25;100.00
72896;BME280;61036;53.224;6.554;2023-12-20T12:33:42;98921.38;;;7.04;100.00
72896;BME280;61036;53.224;6.554;2023-12-20T12:36:10;98920.66;;;7.22;100.00
72896;BME280;61036;53.224;6.554;2023-12-20T12:38:36;98913.19;;;7.25;100.00
72896;BME280;61036;53.224;6.554;2023-12-20T12:41:02;98915.72;;;7.27;100.00
72896;BME280;61036;53.224;6.554;2023-12-20T12:43:27;98917.81;;;7.33;100.00
72896;BME280;61036;53.224;6.554;2023-12-20T12:45:53;98917.97;;;7.41;100.00
72896;BME280;61036;53.224;6.554;2023-12-20T12:48:19;98917.25;;;7.49;100.00
72896;BME280;61036;53.224;6.554;2023-12-20T12:50:47;98901.84;;;7.61;100.00
72896;BME280;61036;53.224;6.554;2023-12-20T12:53:13;98905.50;;;7.69;100.00
72896;BME280;61036;53.224;6.554;2023-12-20T12:55:38;98921.22;;;7.45;100.00
72896;BME280;61036;53.224;6.554;2023-12-20T12:58:04;98917.66;;;7.64;100.00
72896;BME280;61036;53.224;6.554;2023-12-20T13:00:30;98930.53;;;7.50;100.00
72896;BME280;61036;53.224;6.554;2023-12-20T13:02:56;98937.44;;;7.53;100.00